createdAt,value
2022-11-24T00:00:39.806Z,99047.03
2022-11-24T00:03:41.645Z,99052.84
2022-11-24T00:06:43.284Z,99054.06
2022-11-24T00:09:44.835Z,99056.03
2022-11-24T00:12:46.483Z,99055.22
2022-11-24T00:15:48.024Z,99049.75
2022-11-24T00:18:51.147Z,99052.50
2022-11-24T00:21:52.705Z,99053.28
2022-11-24T00:24:54.219Z,99056.03
2022-11-24T00:27:55.738Z,99058.75
2022-11-24T00:30:57.343Z,99063.41
2022-11-24T00:34:01.402Z,99066.94
2022-11-24T00:37:02.918Z,99072.41
2022-11-24T00:40:04.882Z,99069.78
2022-11-24T00:43:06.396Z,99081.13
2022-11-24T00:46:08.033Z,99078.84
2022-11-24T00:49:09.722Z,99084.44
2022-11-24T00:52:11.243Z,99086.37
2022-11-24T00:55:12.785Z,99093.66
2022-11-24T00:58:14.306Z,99090.59
2022-11-24T01:01:18.788Z,99101.87
2022-11-24T01:04:20.338Z,99095.94
2022-11-24T01:07:21.948Z,99096.28
2022-11-24T01:10:23.512Z,99094.69
2022-11-24T01:13:25.040Z,99099.34
2022-11-24T01:16:29.548Z,99092.78
2022-11-24T01:19:31.065Z,99093.91
2022-11-24T01:22:33.074Z,99103.69
2022-11-24T01:25:34.620Z,99096.63
2022-11-24T01:28:37.063Z,99094.69
2022-11-24T01:31:40.294Z,99104.47
2022-11-24T01:34:41.889Z,99102.19
2022-11-24T01:37:43.406Z,99106.44
2022-11-24T01:40:44.933Z,99103.69
2022-11-24T01:43:47.706Z,99097.75
2022-11-24T01:46:52.881Z,99107.56
2022-11-24T01:49:57.299Z,99108.22
2022-11-24T01:52:58.865Z,99112.13
2022-11-24T01:56:00.499Z,99112.13
2022-11-24T01:59:03.300Z,99122.22
2022-11-24T02:02:05.039Z,99116.87
2022-11-24T02:05:13.044Z,99118.38
2022-11-24T02:08:25.645Z,99116.78
2022-11-24T02:11:29.646Z,99086.09
2022-11-24T02:14:31.415Z,99119.84
2022-11-24T02:17:33.198Z,99115.06
2022-11-24T02:20:35.123Z,99112.34
2022-11-24T02:23:48.438Z,99113.12
2022-11-24T02:26:52.083Z,99122.47
2022-11-24T02:29:53.642Z,99109.72
2022-11-24T02:32:55.237Z,99111.53
2022-11-24T02:35:56.816Z,99070.63
2022-11-24T02:38:58.353Z,99117.94
2022-11-24T02:42:09.679Z,99112.13
2022-11-24T02:45:11.939Z,99110.97
2022-11-24T02:48:14.937Z,99107.91
2022-11-24T02:51:16.982Z,99108.56
2022-11-24T02:54:18.510Z,99116.78
2022-11-24T02:57:20.069Z,99108.13
2022-11-24T03:00:22.069Z,99110.06
2022-11-24T03:03:24.456Z,99108.94
2022-11-24T03:06:25.987Z,99119.06
2022-11-24T03:09:28.679Z,99119.72
2022-11-24T03:12:30.264Z,99116.09
2022-11-24T03:15:31.908Z,99113.25
2022-11-24T03:18:33.458Z,99117.37
2022-11-24T03:21:36.541Z,99113.28
2022-11-24T03:24:38.319Z,99132.94
2022-11-24T03:27:39.908Z,99129.28
2022-11-24T03:30:41.582Z,99133.53
2022-11-24T03:33:43.169Z,99130.19
2022-11-24T03:36:44.700Z,99141.00
2022-11-24T03:39:46.218Z,99138.59
2022-11-24T03:42:47.772Z,99130.06
2022-11-24T03:45:49.971Z,99141.91
2022-11-24T03:48:51.502Z,99144.97
2022-11-24T03:51:53.026Z,99157.34
2022-11-24T03:54:54.566Z,99144.72
2022-11-24T03:57:56.084Z,99152.59
2022-11-24T04:00:58.017Z,99161.88
2022-11-24T04:03:59.554Z,99161.44
2022-11-24T04:07:01.111Z,99163.25
2022-11-24T04:10:02.905Z,99114.66
2022-11-24T04:13:10.749Z,99156.06
2022-11-24T04:16:12.310Z,99159.00
2022-11-24T04:19:16.165Z,99160.97
2022-11-24T04:22:18.024Z,99164.81
2022-11-24T04:25:19.674Z,99142.81
2022-11-24T04:28:21.195Z,99167.41
2022-11-24T04:31:22.785Z,99180.59
2022-11-24T04:34:24.362Z,99184.91
2022-11-24T04:37:25.943Z,99194.22
2022-11-24T04:40:27.453Z,99192.16
2022-11-24T04:43:29.756Z,99200.69
2022-11-24T04:46:31.454Z,99189.31
2022-11-24T04:49:33.068Z,99195.91
2022-11-24T04:52:34.693Z,99196.91
2022-11-24T04:55:38.687Z,99203.03
2022-11-24T04:58:40.201Z,99207.56
2022-11-24T05:01:43.125Z,99210.59
2022-11-24T05:04:45.288Z,99221.03
2022-11-24T05:07:46.869Z,99220.59
2022-11-24T05:10:48.415Z,99234.56
2022-11-24T05:13:49.937Z,99233.94
2022-11-24T05:16:51.787Z,99241.19
2022-11-24T05:19:53.319Z,99245.25
2022-11-24T05:22:54.849Z,99248.66
2022-11-24T05:26:02.736Z,99247.37
2022-11-24T05:29:04.255Z,99253.50
2022-11-24T05:32:05.818Z,99262.81
2022-11-24T05:35:09.684Z,99260.84
2022-11-24T05:38:11.387Z,99267.13
2022-11-24T05:41:12.904Z,99267.56
2022-11-24T05:44:14.460Z,99264.06
2022-11-24T05:47:16.126Z,99277.37
2022-11-24T05:50:19.561Z,99277.66
2022-11-24T05:53:21.123Z,99284.41
2022-11-24T05:56:22.743Z,99294.63
2022-11-24T05:59:24.277Z,99297.38
2022-11-24T06:02:26.037Z,99297.50
2022-11-24T06:05:28.768Z,99294.78
2022-11-24T06:08:31.564Z,99294.59
2022-11-24T06:11:33.214Z,99251.97
2022-11-24T06:14:35.197Z,99306.41
2022-11-24T06:17:37.294Z,99308.03
2022-11-24T06:20:38.830Z,99313.94
2022-11-24T06:23:40.776Z,99308.97
2022-11-24T06:26:42.362Z,99316.00
2022-11-24T06:29:43.896Z,99314.06
2022-11-24T06:32:49.351Z,99314.87
2022-11-24T06:35:51.116Z,99316.44
2022-11-24T06:38:52.922Z,99315.81
2022-11-24T06:41:54.469Z,99314.34
2022-11-24T06:44:56.013Z,99325.03
2022-11-24T06:47:57.566Z,99321.53
2022-11-24T06:51:00.665Z,99325.84
2022-11-24T06:54:02.453Z,99330.31
2022-11-24T06:57:04.009Z,99333.03
2022-11-24T07:00:07.865Z,99344.41
2022-11-24T07:03:15.460Z,99339.75
2022-11-24T07:06:17.898Z,99348.84
2022-11-24T07:09:19.403Z,99353.31
2022-11-24T07:12:20.948Z,99361.63
2022-11-24T07:15:22.474Z,99362.38
2022-11-24T07:18:24.021Z,99360.56
2022-11-24T07:21:26.423Z,99374.19
2022-11-24T07:24:27.944Z,99367.63
2022-11-24T07:27:30.269Z,99378.38
2022-11-24T07:30:31.856Z,99392.81
2022-11-24T07:33:33.755Z,99398.09
2022-11-24T07:36:35.274Z,99396.19
2022-11-24T07:39:36.945Z,99397.22
2022-11-24T07:42:38.473Z,99397.34
2022-11-24T07:45:40.040Z,99410.00
2022-11-24T07:48:41.715Z,99404.00
2022-11-24T07:51:43.243Z,99402.66
2022-11-24T07:54:44.779Z,99408.38
2022-11-24T07:57:46.302Z,99406.03
2022-11-24T08:00:47.942Z,99405.84
2022-11-24T08:03:49.580Z,99407.69
2022-11-24T08:06:51.260Z,99415.56
2022-11-24T08:09:52.851Z,99413.28
2022-11-24T08:12:54.380Z,99421.94
2022-11-24T08:15:55.914Z,99422.88
2022-11-24T08:18:57.475Z,99427.78
2022-11-24T08:21:59.011Z,99438.97
2022-11-24T08:25:00.545Z,99428.72
2022-11-24T08:28:03.866Z,99426.03
2022-11-24T08:31:09.081Z,99427.97
2022-11-24T08:34:10.712Z,99432.00
2022-11-24T08:37:12.460Z,99427.78
2022-11-24T08:40:14.051Z,99435.06
2022-11-24T08:43:15.579Z,99435.63
2022-11-24T08:46:18.555Z,99439.50
2022-11-24T08:49:21.630Z,99434.25
2022-11-24T08:52:23.170Z,99430.16
2022-11-24T08:55:24.783Z,99443.63
2022-11-24T08:58:26.499Z,99443.97
2022-11-24T09:01:29.033Z,99417.50
2022-11-24T09:04:30.728Z,99454.44
2022-11-24T09:07:32.372Z,99444.41
2022-11-24T09:10:34.094Z,99443.75
2022-11-24T09:13:36.674Z,99418.19
2022-11-24T09:16:38.279Z,99438.59
2022-11-24T09:19:39.852Z,99456.41
2022-11-24T09:22:43.063Z,99447.41
2022-11-24T09:25:44.599Z,99456.25
2022-11-24T09:28:47.057Z,99450.69
2022-11-24T09:31:48.660Z,99449.69
2022-11-24T09:34:51.114Z,99461.53
2022-11-24T09:37:52.694Z,99453.88
2022-11-24T09:40:57.796Z,99462.78
2022-11-24T09:44:08.887Z,99455.38
2022-11-24T09:47:16.815Z,99422.53
2022-11-24T09:50:27.804Z,99449.97
2022-11-24T09:53:33.940Z,99461.66
2022-11-24T09:56:36.989Z,99472.94
2022-11-24T09:59:40.987Z,99466.63
2022-11-24T10:02:50.031Z,99470.31
2022-11-24T10:05:52.289Z,99469.81
2022-11-24T10:09:21.490Z,99466.03
2022-11-24T10:12:37.501Z,99464.69
2022-11-24T10:15:46.497Z,99458.63
2022-11-24T10:19:06.769Z,99479.66
2022-11-24T10:22:27.770Z,99466.63
2022-11-24T10:25:51.381Z,99475.75
2022-11-24T10:28:56.473Z,99475.31
2022-11-24T10:31:58.079Z,99477.81
2022-11-24T10:35:13.475Z,99478.09
2022-11-24T10:38:26.368Z,99479.28
2022-11-24T10:41:42.352Z,99472.19
2022-11-24T10:44:43.999Z,99476.63
2022-11-24T10:47:46.345Z,99480.41
2022-11-24T10:50:47.896Z,99486.22
2022-11-24T10:53:52.208Z,99473.13
2022-11-24T10:56:54.825Z,99493.19
2022-11-24T10:59:56.893Z,99488.16
2022-11-24T11:03:16.636Z,99468.78
2022-11-24T11:06:26.933Z,99497.13
2022-11-24T11:09:28.453Z,99511.72
2022-11-24T11:12:45.733Z,99515.38
2022-11-24T11:15:47.509Z,99520.03
2022-11-24T11:18:49.761Z,99525.06
2022-11-24T11:22:00.856Z,99515.94
2022-11-24T11:25:11.312Z,99528.09
2022-11-24T11:28:29.229Z,99530.03
2022-11-24T11:31:34.360Z,99539.50
2022-11-24T11:34:36.972Z,99531.53
2022-11-24T11:37:38.782Z,99542.84
2022-11-24T11:40:42.801Z,99539.88
2022-11-24T11:43:45.880Z,99541.19
2022-11-24T11:46:47.558Z,99539.09
2022-11-24T11:49:49.820Z,99549.03
2022-11-24T11:53:18.082Z,99550.78
2022-11-24T11:56:25.577Z,99569.47
2022-11-24T11:59:43.122Z,99544.47
2022-11-24T12:02:53.131Z,99541.88
2022-11-24T12:06:30.773Z,99546.78
2022-11-24T12:09:32.225Z,99541.22
2022-11-24T12:12:43.664Z,99543.16
2022-11-24T12:15:55.144Z,99544.91
2022-11-24T12:19:12.231Z,99544.69
2022-11-24T12:22:32.348Z,99545.00
2022-11-24T12:25:51.130Z,99549.66
2022-11-24T12:29:14.561Z,99541.00
2022-11-24T12:32:38.832Z,99553.91
2022-11-24T12:35:46.531Z,99555.59
2022-11-24T12:38:56.776Z,99550.53
2022-11-24T12:42:21.965Z,99550.41
2022-11-24T12:45:51.087Z,99569.16
2022-11-24T12:49:18.955Z,99549.72
2022-11-24T12:52:42.488Z,99565.13
2022-11-24T12:55:44.475Z,99568.28
2022-11-24T12:59:21.267Z,99567.78
2022-11-24T13:03:07.417Z,99558.13
2022-11-24T13:06:33.921Z,99567.59
2022-11-24T13:09:35.483Z,99569.31
2022-11-24T13:13:03.092Z,99566.78
2022-11-24T13:19:35.777Z,99570.06
2022-11-24T13:22:37.444Z,99569.88
2022-11-24T13:25:39.372Z,99560.75
2022-11-24T13:29:08.851Z,99575.94
2022-11-24T13:32:19.581Z,99571.81
2022-11-24T13:35:21.120Z,99574.91
2022-11-24T13:38:51.067Z,99593.16
2022-11-24T13:41:52.508Z,99591.88
2022-11-24T13:44:56.231Z,99590.37
2022-11-24T13:47:57.738Z,99593.38
2022-11-24T13:51:00.625Z,99593.81
2022-11-24T13:54:02.375Z,99596.47
2022-11-24T13:57:32.835Z,99602.75
2022-11-24T14:00:37.377Z,99612.31
2022-11-24T14:07:25.238Z,99607.31
2022-11-24T14:10:33.894Z,99606.63
2022-11-24T14:13:35.409Z,99622.13
2022-11-24T14:16:36.990Z,99624.88
2022-11-24T14:19:38.727Z,99625.78
2022-11-24T14:22:41.266Z,99633.53
2022-11-24T14:25:49.187Z,99636.38
2022-11-24T14:28:51.172Z,99637.44
2022-11-24T14:31:57.186Z,99633.53
2022-11-24T14:34:58.887Z,99636.63
2022-11-24T14:38:05.224Z,99635.56
2022-11-24T14:41:26.050Z,99641.59
2022-11-24T14:44:47.401Z,99645.59
2022-11-24T14:47:48.970Z,99655.78
2022-11-24T14:50:50.631Z,99656.78
2022-11-24T14:53:54.305Z,99654.97
2022-11-24T14:57:06.260Z,99654.75
2022-11-24T15:00:08.224Z,99655.78
2022-11-24T15:03:19.513Z,99661.00
2022-11-24T15:06:22.607Z,99656.53
2022-11-24T15:09:34.505Z,99666.59
2022-11-24T15:12:41.426Z,99675.44
2022-11-24T15:15:57.566Z,99678.25
2022-11-24T15:19:02.564Z,99681.44
2022-11-24T15:22:28.948Z,99683.53
2022-11-24T15:25:33.598Z,99683.81
2022-11-24T15:28:35.413Z,99695.09
2022-11-24T15:31:37.492Z,99698.94
2022-11-24T15:34:39.126Z,99710.03
2022-11-24T15:37:40.675Z,99700.75
2022-11-24T15:40:44.234Z,99696.09
2022-11-24T15:43:45.886Z,99698.47
2022-11-24T15:46:47.460Z,99702.25
2022-11-24T15:49:49.010Z,99711.50
2022-11-24T15:52:50.556Z,99713.25
2022-11-24T15:55:52.740Z,99710.44
2022-11-24T15:58:54.856Z,99712.44
2022-11-24T16:01:56.442Z,99713.81
2022-11-24T16:04:57.995Z,99713.44
2022-11-24T16:07:59.575Z,99717.88
2022-11-24T16:11:01.154Z,99720.72
2022-11-24T16:14:02.758Z,99716.56
2022-11-24T16:17:04.324Z,99717.63
2022-11-24T16:20:06.561Z,99721.34
2022-11-24T16:23:08.112Z,99714.38
2022-11-24T16:26:10.237Z,99721.97
2022-11-24T16:29:11.985Z,99723.22
2022-11-24T16:32:13.514Z,99719.56
2022-11-24T16:35:15.293Z,99723.91
2022-11-24T16:38:20.337Z,99730.19
2022-11-24T16:41:21.915Z,99742.16
2022-11-24T16:44:23.465Z,99748.13
2022-11-24T16:47:25.105Z,99744.44
2022-11-24T16:50:26.813Z,99730.66
2022-11-24T16:53:28.353Z,99741.87
2022-11-24T16:56:30.640Z,99753.44
2022-11-24T16:59:32.280Z,99751.47
2022-11-24T17:02:34.141Z,99759.69
2022-11-24T17:05:35.716Z,99762.41
2022-11-24T17:08:39.338Z,99761.94
2022-11-24T17:11:41.282Z,99767.22
2022-11-24T17:14:44.348Z,99764.47
2022-11-24T17:18:22.502Z,99758.06
2022-11-24T17:21:15.633Z,99766.59
2022-11-24T17:24:18.123Z,99775.38
2022-11-24T17:27:20.106Z,99776.69
2022-11-24T17:30:21.759Z,99773.00
2022-11-24T17:33:23.394Z,99773.94
2022-11-24T17:36:25.608Z,99737.69
2022-11-24T17:39:27.792Z,99769.44
2022-11-24T17:42:29.319Z,99757.91
2022-11-24T17:45:30.975Z,99772.34
2022-11-24T17:48:33.020Z,99774.25
2022-11-24T17:51:34.818Z,99734.13
2022-11-24T17:54:46.246Z,99794.00
2022-11-24T17:57:48.318Z,99799.28
2022-11-24T18:00:51.611Z,99803.59
2022-11-24T18:03:54.310Z,99812.75
2022-11-24T18:06:55.871Z,99810.47
2022-11-24T18:09:57.506Z,99818.34
2022-11-24T18:12:59.043Z,99822.97
2022-11-24T18:16:06.847Z,99829.69
2022-11-24T18:19:10.910Z,99830.31
2022-11-24T18:22:12.959Z,99848.22
2022-11-24T18:25:14.585Z,99835.63
2022-11-24T18:28:16.126Z,99846.59
2022-11-24T18:31:18.696Z,99861.72
2022-11-24T18:34:20.286Z,99811.59
2022-11-24T18:37:21.844Z,99849.78
2022-11-24T18:40:23.402Z,99844.81
2022-11-24T18:43:26.083Z,99850.41
2022-11-24T18:46:27.689Z,99854.13
2022-11-24T18:49:31.171Z,99862.75
2022-11-24T18:52:32.692Z,99868.59
2022-11-24T18:55:34.218Z,99861.09
2022-11-24T18:58:35.802Z,99878.66
2022-11-24T19:01:37.920Z,99881.28
2022-11-24T19:04:39.625Z,99886.81
2022-11-24T19:07:41.279Z,99883.91
2022-11-24T19:10:45.237Z,99851.78
2022-11-24T19:13:47.731Z,99882.13
2022-11-24T19:16:49.357Z,99883.97
2022-11-24T19:19:51.666Z,99895.28
2022-11-24T19:22:53.185Z,99897.09
2022-11-24T19:25:54.720Z,99891.88
2022-11-24T19:28:56.256Z,99905.62
2022-11-24T19:31:57.994Z,99911.69
2022-11-24T19:34:59.582Z,99915.88
2022-11-24T19:38:01.242Z,99922.31
2022-11-24T19:41:04.755Z,99923.19
2022-11-24T19:44:06.312Z,99928.22
2022-11-24T19:47:07.851Z,99925.91
2022-11-24T19:50:10.606Z,99927.50
2022-11-24T19:53:12.262Z,99928.28
2022-11-24T19:56:17.024Z,99933.94
2022-11-24T19:59:18.753Z,99926.69
2022-11-24T20:02:20.318Z,99935.66
2022-11-24T20:05:21.846Z,99950.19
2022-11-24T20:08:23.397Z,99948.25
2022-11-24T20:11:25.215Z,99961.78
2022-11-24T20:14:26.794Z,99957.69
2022-11-24T20:17:30.255Z,99962.22
2022-11-24T20:20:32.660Z,99969.56
2022-11-24T20:23:34.929Z,99975.00
2022-11-24T20:26:45.324Z,99978.53
2022-11-24T20:29:47.175Z,99981.75
2022-11-24T20:32:48.749Z,99991.81
2022-11-24T20:35:50.265Z,99994.63
2022-11-24T20:38:52.891Z,99996.66
2022-11-24T20:41:55.219Z,99997.97
2022-11-24T20:44:56.855Z,99999.50
2022-11-24T20:47:58.384Z,100007.94
2022-11-24T20:51:04.870Z,100011.19
2022-11-24T20:54:08.215Z,100009.78
2022-11-24T20:57:09.751Z,100011.00
2022-11-24T21:00:12.103Z,100010.28
2022-11-24T21:03:13.646Z,100018.84
2022-11-24T21:06:15.217Z,100016.78
2022-11-24T21:09:17.375Z,100024.03
2022-11-24T21:12:18.904Z,100016.47
2022-11-24T21:15:20.441Z,100021.66
2022-11-24T21:18:22.265Z,100024.09
2022-11-24T21:21:25.308Z,100031.62
2022-11-24T21:24:26.970Z,100039.88
2022-11-24T21:27:28.759Z,100039.22
2022-11-24T21:30:30.633Z,100047.09
2022-11-24T21:33:32.407Z,100029.97
2022-11-24T21:36:35.056Z,100040.19
2022-11-24T21:39:36.779Z,100039.56
2022-11-24T21:42:38.353Z,100043.16
2022-11-24T21:45:39.954Z,100035.41
2022-11-24T21:48:42.239Z,100045.38
2022-11-24T21:51:43.799Z,100034.19
2022-11-24T21:54:45.322Z,100041.06
2022-11-24T21:57:46.909Z,100038.13
2022-11-24T22:00:48.645Z,100037.56
2022-11-24T22:03:50.316Z,100044.63
2022-11-24T22:06:54.805Z,100046.34
2022-11-24T22:09:56.334Z,100041.91
2022-11-24T22:12:57.880Z,100020.37
2022-11-24T22:16:10.651Z,100038.88
2022-11-24T22:19:12.236Z,100043.34
2022-11-24T22:22:13.759Z,100046.44
2022-11-24T22:25:15.405Z,100051.50
2022-11-24T22:28:16.929Z,100046.16
2022-11-24T22:31:23.999Z,100066.41
2022-11-24T22:34:25.604Z,100068.19
2022-11-24T22:37:27.129Z,100067.19
2022-11-24T22:40:28.663Z,100081.19
2022-11-24T22:43:34.607Z,100081.19
2022-11-24T22:46:36.141Z,100074.75
2022-11-24T22:49:37.737Z,100070.94
2022-11-24T22:52:40.457Z,100081.72
2022-11-24T22:55:41.993Z,100080.50
2022-11-24T22:58:43.823Z,100087.84
2022-11-24T23:01:45.398Z,100091.47
2022-11-24T23:04:46.922Z,100100.66
2022-11-24T23:07:48.532Z,100098.31
2022-11-24T23:10:50.056Z,100104.97
2022-11-24T23:13:56.125Z,100101.03
2022-11-24T23:16:57.723Z,100108.09
2022-11-24T23:19:59.311Z,100119.78
2022-11-24T23:23:00.924Z,100116.31
2022-11-24T23:26:04.675Z,100116.34
2022-11-24T23:29:06.847Z,100116.75
2022-11-24T23:32:08.383Z,100117.84
2022-11-24T23:35:13.776Z,100110.41
2022-11-24T23:38:15.718Z,100110.88
2022-11-24T23:41:20.495Z,100121.25
2022-11-24T23:44:22.128Z,100125.22
2022-11-24T23:47:23.689Z,100127.00
2022-11-24T23:50:25.236Z,100124.09
2022-11-24T23:53:26.779Z,100116.03
2022-11-24T23:56:32.569Z,100130.44
2022-11-24T23:59:34.412Z,100127.34
